Aviation Digital Data Service (ADDS)

Output produced by METARs form (0103 UTC 07 February 2016)
found at http://www.aviationweather.gov/adds/metars/
 
KCRQ 070053Z AUTO VRB03KT 10SM CLR 19/M02 A3012 RMK AO2 SLP199 T01941017 TSNO
KCRQ 062353Z AUTO 29004KT 10SM CLR 21/M02 A3013 RMK AO2 SLP200 T02111017 10250 20200 55013 TSNO
KCRQ 062253Z AUTO VRB05KT 10SM CLR 22/M02 A3013 RMK AO2 SLP199 T02171017 TSNO
KCRQ 062153Z AUTO 28006KT 10SM CLR 21/01 A3014 RMK AO2 SLP204 T02110006 TSNO
KCRQ 062328Z 0700/0724 28006KT P6SM SKC 
     FM070200 VRB03KT P6SM SKC 
     FM070700 05005KT P6SM SKC 
     FM071200 07010KT P6SM SKC 
     FM071800 27007KT P6SM SKC